sensor_id;sensor_type;location;lat;lon;timestamp;pressure;altitude;pressure_sealevel;temperature;humidity
8501;BME280;4288;48.484;10.024;2023-01-27T00:00:03;95673.84;;;-1.96;nan
8501;BME280;4288;48.484;10.024;2023-01-27T00:02:31;95670.94;;;-1.95;nan
8501;BME280;4288;48.484;10.024;2023-01-27T00:04:58;95679.22;;;-2.01;nan
8501;BME280;4288;48.484;10.024;2023-01-27T00:07:25;95677.72;;;-1.94;nan
8501;BME280;4288;48.484;10.024;2023-01-27T00:09:53;95676.47;;;-1.96;nan
8501;BME280;4288;48.484;10.024;2023-01-27T00:12:26;95665.59;;;-1.90;nan
8501;BME280;4288;48.484;10.024;2023-01-27T00:15:12;95658.31;;;-1.93;nan
8501;BME280;4288;48.484;10.024;2023-01-27T00:17:41;95662.81;;;-2.07;nan
8501;BME280;4288;48.484;10.024;2023-01-27T00:20:09;95669.44;;;-2.09;nan
8501;BME280;4288;48.484;10.024;2023-01-27T00:22:37;95662.34;;;-2.09;nan
8501;BME280;4288;48.484;10.024;2023-01-27T00:25:22;95660.56;;;-2.00;nan
8501;BME280;4288;48.484;10.024;2023-01-27T00:27:50;95659.50;;;-1.99;nan
8501;BME280;4288;48.484;10.024;2023-01-27T00:30:17;95662.78;;;-1.93;nan
8501;BME280;4288;48.484;10.024;2023-01-27T00:32:44;95670.09;;;-2.04;nan
8501;BME280;4288;48.484;10.024;2023-01-27T00:35:28;95666.34;;;-2.11;nan
8501;BME280;4288;48.484;10.024;2023-01-27T00:37:55;95676.03;;;-2.12;nan
8501;BME280;4288;48.484;10.024;2023-01-27T00:40:24;95671.56;;;-2.11;nan
8501;BME280;4288;48.484;10.024;2023-01-27T00:42:51;95676.38;;;-2.05;nan
8501;BME280;4288;48.484;10.024;2023-01-27T00:45:18;95679.31;;;-2.06;nan
8501;BME280;4288;48.484;10.024;2023-01-27T00:48:03;95687.34;;;-2.03;nan
8501;BME280;4288;48.484;10.024;2023-01-27T00:50:30;95681.41;;;-1.95;nan
8501;BME280;4288;48.484;10.024;2023-01-27T00:52:57;95675.41;;;-1.95;nan
8501;BME280;4288;48.484;10.024;2023-01-27T00:55:28;95670.22;;;-1.87;nan
8501;BME280;4288;48.484;10.024;2023-01-27T00:57:55;95669.25;;;-1.91;nan
8501;BME280;4288;48.484;10.024;2023-01-27T01:00:22;95667.06;;;-1.97;nan
8501;BME280;4288;48.484;10.024;2023-01-27T01:02:49;95668.59;;;-1.96;nan
8501;BME280;4288;48.484;10.024;2023-01-27T01:05:16;95668.06;;;-1.85;nan
8501;BME280;4288;48.484;10.024;2023-01-27T01:07:43;95669.09;;;-1.94;nan
8501;BME280;4288;48.484;10.024;2023-01-27T01:10:10;95672.19;;;-1.92;nan
8501;BME280;4288;48.484;10.024;2023-01-27T01:12:39;95675.41;;;-1.95;nan
8501;BME280;4288;48.484;10.024;2023-01-27T01:15:07;95671.53;;;-1.98;nan
8501;BME280;4288;48.484;10.024;2023-01-27T01:17:34;95677.16;;;-2.04;nan
8501;BME280;4288;48.484;10.024;2023-01-27T01:20:01;95681.34;;;-2.03;nan
8501;BME280;4288;48.484;10.024;2023-01-27T01:22:29;95668.31;;;-1.95;nan
8501;BME280;4288;48.484;10.024;2023-01-27T01:24:56;95660.94;;;-1.93;nan
8501;BME280;4288;48.484;10.024;2023-01-27T01:27:23;95675.97;;;-1.98;nan
8501;BME280;4288;48.484;10.024;2023-01-27T01:29:51;95677.03;;;-1.86;nan
8501;BME280;4288;48.484;10.024;2023-01-27T01:32:18;95676.53;;;-1.88;nan
8501;BME280;4288;48.484;10.024;2023-01-27T01:34:45;95671.31;;;-1.88;nan
8501;BME280;4288;48.484;10.024;2023-01-27T01:37:12;95670.94;;;-1.95;nan
8501;BME280;4288;48.484;10.024;2023-01-27T01:39:39;95659.91;;;-1.83;nan
8501;BME280;4288;48.484;10.024;2023-01-27T01:42:06;95666.66;;;-1.91;nan
8501;BME280;4288;48.484;10.024;2023-01-27T01:44:34;95670.44;;;-1.97;nan
8501;BME280;4288;48.484;10.024;2023-01-27T01:47:03;95675.09;;;-1.94;nan
8501;BME280;4288;48.484;10.024;2023-01-27T01:49:33;95670.66;;;-1.93;nan
8501;BME280;4288;48.484;10.024;2023-01-27T01:52:07;95671.41;;;-1.93;nan
8501;BME280;4288;48.484;10.024;2023-01-27T01:54:40;95673.44;;;-1.90;nan
8501;BME280;4288;48.484;10.024;2023-01-27T01:57:12;95662.38;;;-1.87;nan
8501;BME280;4288;48.484;10.024;2023-01-27T01:59:45;95664.88;;;-1.82;nan
8501;BME280;4288;48.484;10.024;2023-01-27T02:02:20;95654.41;;;-1.82;nan
8501;BME280;4288;48.484;10.024;2023-01-27T02:04:53;95648.13;;;-1.94;nan
8501;BME280;4288;48.484;10.024;2023-01-27T02:07:30;95643.84;;;-1.90;nan
8501;BME280;4288;48.484;10.024;2023-01-27T02:09:59;95647.19;;;-1.98;nan
8501;BME280;4288;48.484;10.024;2023-01-27T02:12:27;95659.56;;;-1.90;nan
8501;BME280;4288;48.484;10.024;2023-01-27T02:14:54;95659.00;;;-2.01;nan
8501;BME280;4288;48.484;10.024;2023-01-27T02:17:23;95651.84;;;-1.95;nan
8501;BME280;4288;48.484;10.024;2023-01-27T02:19:57;95654.88;;;-2.02;nan
8501;BME280;4288;48.484;10.024;2023-01-27T02:22:38;95653.50;;;-1.99;nan
8501;BME280;4288;48.484;10.024;2023-01-27T02:25:15;95649.03;;;-1.99;nan
8501;BME280;4288;48.484;10.024;2023-01-27T02:27:45;95645.16;;;-2.01;nan
8501;BME280;4288;48.484;10.024;2023-01-27T02:30:12;95644.25;;;-1.97;nan
8501;BME280;4288;48.484;10.024;2023-01-27T02:32:39;95631.88;;;-2.05;nan
8501;BME280;4288;48.484;10.024;2023-01-27T02:35:08;95633.63;;;-2.00;nan
8501;BME280;4288;48.484;10.024;2023-01-27T02:37:37;95629.16;;;-2.00;nan
8501;BME280;4288;48.484;10.024;2023-01-27T02:40:06;95620.94;;;-2.07;nan
8501;BME280;4288;48.484;10.024;2023-01-27T02:42:34;95624.28;;;-1.93;nan
8501;BME280;4288;48.484;10.024;2023-01-27T02:45:03;95623.22;;;-1.92;nan
8501;BME280;4288;48.484;10.024;2023-01-27T02:47:30;95620.69;;;-1.97;nan
8501;BME280;4288;48.484;10.024;2023-01-27T02:49:57;95624.69;;;-1.99;nan
8501;BME280;4288;48.484;10.024;2023-01-27T02:52:24;95629.03;;;-1.95;nan
8501;BME280;4288;48.484;10.024;2023-01-27T02:54:51;95628.63;;;-1.88;nan
8501;BME280;4288;48.484;10.024;2023-01-27T02:57:18;95624.56;;;-1.94;nan
8501;BME280;4288;48.484;10.024;2023-01-27T02:59:46;95622.34;;;-2.01;nan
8501;BME280;4288;48.484;10.024;2023-01-27T03:02:14;95625.94;;;-1.97;nan
8501;BME280;4288;48.484;10.024;2023-01-27T03:04:47;95626.59;;;-1.91;nan
8501;BME280;4288;48.484;10.024;2023-01-27T03:07:14;95614.41;;;-1.96;nan
8501;BME280;4288;48.484;10.024;2023-01-27T03:09:41;95617.72;;;-2.04;nan
8501;BME280;4288;48.484;10.024;2023-01-27T03:12:08;95625.19;;;-1.97;nan
8501;BME280;4288;48.484;10.024;2023-01-27T03:14:49;95630.66;;;-2.07;nan
8501;BME280;4288;48.484;10.024;2023-01-27T03:17:36;95633.25;;;-2.07;nan
8501;BME280;4288;48.484;10.024;2023-01-27T03:20:21;95639.16;;;-2.02;nan
8501;BME280;4288;48.484;10.024;2023-01-27T03:22:48;95642.78;;;-1.89;nan
8501;BME280;4288;48.484;10.024;2023-01-27T03:25:16;95632.44;;;-1.94;nan
8501;BME280;4288;48.484;10.024;2023-01-27T03:27:43;95639.09;;;-1.88;nan
8501;BME280;4288;48.484;10.024;2023-01-27T03:30:11;95645.69;;;-1.91;nan
8501;BME280;4288;48.484;10.024;2023-01-27T03:32:39;95642.97;;;-1.86;nan
8501;BME280;4288;48.484;10.024;2023-01-27T03:35:12;95642.97;;;-1.86;nan
8501;BME280;4288;48.484;10.024;2023-01-27T03:37:41;95642.78;;;-1.89;nan
8501;BME280;4288;48.484;10.024;2023-01-27T03:40:26;95639.44;;;-1.81;nan
8501;BME280;4288;48.484;10.024;2023-01-27T03:43:11;95638.50;;;-1.85;nan
8501;BME280;4288;48.484;10.024;2023-01-27T03:45:55;95643.50;;;-1.75;nan
8501;BME280;4288;48.484;10.024;2023-01-27T03:48:41;95634.63;;;-1.88;nan
8501;BME280;4288;48.484;10.024;2023-01-27T03:51:09;95634.50;;;-1.83;nan
8501;BME280;4288;48.484;10.024;2023-01-27T03:53:36;95637.75;;;-1.86;nan
8501;BME280;4288;48.484;10.024;2023-01-27T03:56:04;95645.13;;;-1.88;nan
8501;BME280;4288;48.484;10.024;2023-01-27T03:58:33;95648.22;;;-1.86;nan
8501;BME280;4288;48.484;10.024;2023-01-27T04:01:03;95648.69;;;-1.84;nan
8501;BME280;4288;48.484;10.024;2023-01-27T04:03:33;95648.22;;;-1.86;nan
8501;BME280;4288;48.484;10.024;2023-01-27T04:06:22;95641.88;;;-1.85;nan
8501;BME280;4288;48.484;10.024;2023-01-27T04:09:08;95632.50;;;-1.86;nan
8501;BME280;4288;48.484;10.024;2023-01-27T04:11:36;95632.06;;;-1.79;nan
8501;BME280;4288;48.484;10.024;2023-01-27T04:14:25;95635.59;;;-1.84;nan
8501;BME280;4288;48.484;10.024;2023-01-27T04:16:54;95632.13;;;-1.93;nan
8501;BME280;4288;48.484;10.024;2023-01-27T04:19:22;95630.75;;;-1.90;nan
8501;BME280;4288;48.484;10.024;2023-01-27T04:21:52;95632.50;;;-1.86;nan
8501;BME280;4288;48.484;10.024;2023-01-27T04:24:19;95637.44;;;-1.84;nan
8501;BME280;4288;48.484;10.024;2023-01-27T04:26:53;95628.50;;;-1.83;nan
8501;BME280;4288;48.484;10.024;2023-01-27T04:29:23;95645.88;;;-1.87;nan
8501;BME280;4288;48.484;10.024;2023-01-27T04:31:50;95641.41;;;-1.87;nan
8501;BME280;4288;48.484;10.024;2023-01-27T04:34:18;95640.34;;;-1.86;nan
8501;BME280;4288;48.484;10.024;2023-01-27T04:36:46;95639.28;;;-1.85;nan
8501;BME280;4288;48.484;10.024;2023-01-27T04:39:15;95642.03;;;-1.90;nan
8501;BME280;4288;48.484;10.024;2023-01-27T04:41:43;95638.63;;;-1.90;nan
8501;BME280;4288;48.484;10.024;2023-01-27T04:44:11;95642.03;;;-1.90;nan
8501;BME280;4288;48.484;10.024;2023-01-27T04:46:38;95645.69;;;-1.91;nan
8501;BME280;4288;48.484;10.024;2023-01-27T04:49:06;95644.16;;;-1.92;nan
8501;BME280;4288;48.484;10.024;2023-01-27T04:51:33;95650.75;;;-1.94;nan
8501;BME280;4288;48.484;10.024;2023-01-27T04:54:01;95646.59;;;-1.95;nan
8501;BME280;4288;48.484;10.024;2023-01-27T04:56:33;95654.47;;;-1.95;nan
8501;BME280;4288;48.484;10.024;2023-01-27T04:59:03;95655.81;;;-1.98;nan
8501;BME280;4288;48.484;10.024;2023-01-27T05:01:30;95663.13;;;-2.08;nan
8501;BME280;4288;48.484;10.024;2023-01-27T05:03:57;95658.97;;;-2.09;nan
8501;BME280;4288;48.484;10.024;2023-01-27T05:06:25;95665.16;;;-2.05;nan
8501;BME280;4288;48.484;10.024;2023-01-27T05:08:53;95654.25;;;-1.99;nan
8501;BME280;4288;48.484;10.024;2023-01-27T05:11:20;95648.44;;;-1.96;nan
8501;BME280;4288;48.484;10.024;2023-01-27T05:13:49;95642.28;;;-1.91;nan
8501;BME280;4288;48.484;10.024;2023-01-27T05:16:18;95640.16;;;-1.89;nan
8501;BME280;4288;48.484;10.024;2023-01-27T05:18:47;95644.81;;;-1.86;nan
8501;BME280;4288;48.484;10.024;2023-01-27T05:21:17;95652.41;;;-1.98;nan
8501;BME280;4288;48.484;10.024;2023-01-27T05:23:45;95655.03;;;-1.98;nan
8501;BME280;4288;48.484;10.024;2023-01-27T05:26:14;95657.34;;;-1.97;nan
8501;BME280;4288;48.484;10.024;2023-01-27T05:28:44;95673.53;;;-1.95;nan
8501;BME280;4288;48.484;10.024;2023-01-27T05:31:15;95668.91;;;-1.98;nan
8501;BME280;4288;48.484;10.024;2023-01-27T05:33:44;95674.63;;;-1.96;nan
8501;BME280;4288;48.484;10.024;2023-01-27T05:36:16;95667.34;;;-1.99;nan
8501;BME280;4288;48.484;10.024;2023-01-27T05:38:43;95650.50;;;-2.06;nan
8501;BME280;4288;48.484;10.024;2023-01-27T05:41:12;95657.78;;;-2.03;nan
8501;BME280;4288;48.484;10.024;2023-01-27T05:43:42;95666.00;;;-1.96;nan
8501;BME280;4288;48.484;10.024;2023-01-27T05:46:13;95670.94;;;-1.95;nan
8501;BME280;4288;48.484;10.024;2023-01-27T05:48:43;95663.53;;;-1.93;nan
8501;BME280;4288;48.484;10.024;2023-01-27T05:51:12;95667.66;;;-2.00;nan
8501;BME280;4288;48.484;10.024;2023-01-27T05:53:40;95672.53;;;-2.07;nan
8501;BME280;4288;48.484;10.024;2023-01-27T05:56:09;95675.91;;;-2.07;nan
8501;BME280;4288;48.484;10.024;2023-01-27T05:58:37;95676.38;;;-2.05;nan
8501;BME280;4288;48.484;10.024;2023-01-27T06:01:10;95680.56;;;-2.04;nan
8501;BME280;4288;48.484;10.024;2023-01-27T06:03:40;95677.75;;;-2.07;nan
8501;BME280;4288;48.484;10.024;2023-01-27T06:06:08;95675.41;;;-2.09;nan
8501;BME280;4288;48.484;10.024;2023-01-27T06:08:36;95684.44;;;-2.01;nan
8501;BME280;4288;48.484;10.024;2023-01-27T06:11:04;95682.69;;;-2.06;nan
8501;BME280;4288;48.484;10.024;2023-01-27T06:13:32;95672.44;;;-2.16;nan
8501;BME280;4288;48.484;10.024;2023-01-27T06:16:01;95677.88;;;-2.12;nan
8501;BME280;4288;48.484;10.024;2023-01-27T06:18:28;95691.25;;;-2.14;nan
8501;BME280;4288;48.484;10.024;2023-01-27T06:20:58;95696.59;;;-2.19;nan
8501;BME280;4288;48.484;10.024;2023-01-27T06:23:26;95696.59;;;-2.19;nan
8501;BME280;4288;48.484;10.024;2023-01-27T06:25:54;95700.94;;;-2.14;nan
8501;BME280;4288;48.484;10.024;2023-01-27T06:28:21;95706.47;;;-2.16;nan
8501;BME280;4288;48.484;10.024;2023-01-27T06:30:48;95690.19;;;-2.13;nan
8501;BME280;4288;48.484;10.024;2023-01-27T06:33:17;95695.34;;;-2.21;nan
8501;BME280;4288;48.484;10.024;2023-01-27T06:35:44;95688.47;;;-2.17;nan
8501;BME280;4288;48.484;10.024;2023-01-27T06:38:13;95689.31;;;-2.22;nan
8501;BME280;4288;48.484;10.024;2023-01-27T06:40:40;95707.25;;;-2.15;nan
8501;BME280;4288;48.484;10.024;2023-01-27T06:43:11;95707.25;;;-2.15;nan
8501;BME280;4288;48.484;10.024;2023-01-27T06:45:39;95719.09;;;-2.18;nan
8501;BME280;4288;48.484;10.024;2023-01-27T06:48:06;95721.53;;;-2.21;nan
8501;BME280;4288;48.484;10.024;2023-01-27T06:50:34;95724.44;;;-2.23;nan
8501;BME280;4288;48.484;10.024;2023-01-27T06:53:04;95729.84;;;-2.19;nan
8501;BME280;4288;48.484;10.024;2023-01-27T06:55:34;95734.00;;;-2.18;nan
8501;BME280;4288;48.484;10.024;2023-01-27T06:58:07;95732.78;;;-2.21;nan
8501;BME280;4288;48.484;10.024;2023-01-27T07:00:34;95737.03;;;-2.25;nan
8501;BME280;4288;48.484;10.024;2023-01-27T07:03:02;95732.28;;;-2.23;nan
8501;BME280;4288;48.484;10.024;2023-01-27T07:05:30;95735.66;;;-2.22;nan
8501;BME280;4288;48.484;10.024;2023-01-27T07:07:57;95742.44;;;-2.21;nan
8501;BME280;4288;48.484;10.024;2023-01-27T07:10:24;95743.03;;;-2.24;nan
8501;BME280;4288;48.484;10.024;2023-01-27T07:12:52;95751.09;;;-2.21;nan
8501;BME280;4288;48.484;10.024;2023-01-27T07:15:29;95748.84;;;-2.27;nan
8501;BME280;4288;48.484;10.024;2023-01-27T07:17:57;95753.97;;;-2.22;nan
8501;BME280;4288;48.484;10.024;2023-01-27T07:20:24;95751.16;;;-2.12;nan
8501;BME280;4288;48.484;10.024;2023-01-27T07:22:53;95756.31;;;-2.21;nan
8501;BME280;4288;48.484;10.024;2023-01-27T07:25:21;95753.88;;;-2.17;nan
8501;BME280;4288;48.484;10.024;2023-01-27T07:27:48;95753.78;;;-2.12;nan
8501;BME280;4288;48.484;10.024;2023-01-27T07:30:17;95766.19;;;-2.18;nan
8501;BME280;4288;48.484;10.024;2023-01-27T07:32:45;95770.47;;;-2.22;nan
8501;BME280;4288;48.484;10.024;2023-01-27T07:35:12;95758.03;;;-2.16;nan
8501;BME280;4288;48.484;10.024;2023-01-27T07:37:39;95759.69;;;-2.20;nan
8501;BME280;4288;48.484;10.024;2023-01-27T07:40:08;95764.84;;;-2.15;nan
8501;BME280;4288;48.484;10.024;2023-01-27T07:42:35;95761.44;;;-2.16;nan
8501;BME280;4288;48.484;10.024;2023-01-27T07:45:02;95766.59;;;-2.11;nan
8501;BME280;4288;48.484;10.024;2023-01-27T07:47:31;95766.19;;;-2.18;nan
8501;BME280;4288;48.484;10.024;2023-01-27T07:49:58;95764.81;;;-2.02;nan
8501;BME280;4288;48.484;10.024;2023-01-27T07:52:25;95773.19;;;-2.13;nan
8501;BME280;4288;48.484;10.024;2023-01-27T07:54:52;95768.22;;;-2.01;nan
8501;BME280;4288;48.484;10.024;2023-01-27T07:57:19;95774.63;;;-2.07;nan
8501;BME280;4288;48.484;10.024;2023-01-27T07:59:46;95777.25;;;-2.07;nan
8501;BME280;4288;48.484;10.024;2023-01-27T08:02:13;95775.69;;;-2.08;nan
8501;BME280;4288;48.484;10.024;2023-01-27T08:04:41;95789.66;;;-1.99;nan
8501;BME280;4288;48.484;10.024;2023-01-27T08:07:09;95786.44;;;-1.96;nan
8501;BME280;4288;48.484;10.024;2023-01-27T08:09:36;95794.59;;;-1.98;nan
8501;BME280;4288;48.484;10.024;2023-01-27T08:12:03;95790.41;;;-1.99;nan
8501;BME280;4288;48.484;10.024;2023-01-27T08:14:30;95790.19;;;-1.89;nan
8501;BME280;4288;48.484;10.024;2023-01-27T08:16:57;95790.19;;;-1.89;nan
8501;BME280;4288;48.484;10.024;2023-01-27T08:19:24;95788.00;;;-1.95;nan
8501;BME280;4288;48.484;10.024;2023-01-27T08:21:52;95794.00;;;-1.95;nan
8501;BME280;4288;48.484;10.024;2023-01-27T08:24:20;95793.41;;;-1.92;nan
8501;BME280;4288;48.484;10.024;2023-01-27T08:26:47;95786.25;;;-2.00;nan
8501;BME280;4288;48.484;10.024;2023-01-27T08:29:14;95781.19;;;-1.96;nan
8501;BME280;4288;48.484;10.024;2023-01-27T08:31:41;95781.69;;;-1.94;nan
8501;BME280;4288;48.484;10.024;2023-01-27T08:34:08;95782.56;;;-1.99;nan
8501;BME280;4288;48.484;10.024;2023-01-27T08:36:36;95779.94;;;-1.99;nan
8501;BME280;4288;48.484;10.024;2023-01-27T08:39:08;95780.13;;;-1.82;nan
8501;BME280;4288;48.484;10.024;2023-01-27T08:41:35;95781.25;;;-1.74;nan
8501;BME280;4288;48.484;10.024;2023-01-27T08:44:02;95786.22;;;-1.86;nan
8501;BME280;4288;48.484;10.024;2023-01-27T08:46:29;95786.50;;;-1.74;nan
8501;BME280;4288;48.484;10.024;2023-01-27T08:48:56;95790.31;;;-1.58;nan
8501;BME280;4288;48.484;10.024;2023-01-27T08:51:24;95784.53;;;-1.68;nan
8501;BME280;4288;48.484;10.024;2023-01-27T08:53:51;95786.69;;;-1.70;nan
8501;BME280;4288;48.484;10.024;2023-01-27T08:56:19;95787.19;;;-1.82;nan
8501;BME280;4288;48.484;10.024;2023-01-27T08:58:46;95782.03;;;-1.87;nan
8501;BME280;4288;48.484;10.024;2023-01-27T09:01:14;95798.22;;;-1.71;nan
8501;BME280;4288;48.484;10.024;2023-01-27T09:03:41;95793.38;;;-1.64;nan
8501;BME280;4288;48.484;10.024;2023-01-27T09:06:11;95797.47;;;-1.50;nan
8501;BME280;4288;48.484;10.024;2023-01-27T09:08:39;95791.66;;;-1.47;nan
8501;BME280;4288;48.484;10.024;2023-01-27T09:11:10;95800.88;;;-1.49;nan
8501;BME280;4288;48.484;10.024;2023-01-27T09:13:39;95798.97;;;-1.57;nan
8501;BME280;4288;48.484;10.024;2023-01-27T09:16:07;95794.84;;;-1.50;nan
8501;BME280;4288;48.484;10.024;2023-01-27T09:18:34;95797.59;;;-1.55;nan
8501;BME280;4288;48.484;10.024;2023-01-27T09:21:03;95786.25;;;-1.50;nan
8501;BME280;4288;48.484;10.024;2023-01-27T09:23:31;95797.88;;;-1.43;nan
8501;BME280;4288;48.484;10.024;2023-01-27T09:25:58;95796.94;;;-1.38;nan
8501;BME280;4288;48.484;10.024;2023-01-27T09:28:25;95776.94;;;-1.56;nan
8501;BME280;4288;48.484;10.024;2023-01-27T09:30:57;95786.47;;;-1.38;nan
8501;BME280;4288;48.484;10.024;2023-01-27T09:33:25;95784.63;;;-1.38;nan
8501;BME280;4288;48.484;10.024;2023-01-27T09:35:57;95784.75;;;-1.43;nan
8501;BME280;4288;48.484;10.024;2023-01-27T09:38:26;95793.16;;;-1.32;nan
8501;BME280;4288;48.484;10.024;2023-01-27T09:41:19;95795.91;;;-1.37;nan
8501;BME280;4288;48.484;10.024;2023-01-27T09:44:25;95800.25;;;-1.33;nan
8501;BME280;4288;48.484;10.024;2023-01-27T09:47:22;95803.09;;;-1.21;nan
8501;BME280;4288;48.484;10.024;2023-01-27T09:50:14;95810.75;;;-1.33;nan
8501;BME280;4288;48.484;10.024;2023-01-27T09:56:03;95831.94;;;-1.43;nan
8501;BME280;4288;48.484;10.024;2023-01-27T09:58:46;95825.78;;;-1.38;nan
8501;BME280;4288;48.484;10.024;2023-01-27T10:01:23;95811.91;;;-1.17;nan
8501;BME280;4288;48.484;10.024;2023-01-27T10:04:09;95815.56;;;-1.48;nan
8501;BME280;4288;48.484;10.024;2023-01-27T10:06:59;95824.94;;;-1.12;nan
8501;BME280;4288;48.484;10.024;2023-01-27T10:13:04;95820.22;;;-1.23;nan
8501;BME280;4288;48.484;10.024;2023-01-27T10:15:52;95813.88;;;-1.22;nan
8501;BME280;4288;48.484;10.024;2023-01-27T10:18:41;95828.69;;;-1.04;nan
8501;BME280;4288;48.484;10.024;2023-01-27T10:21:16;95834.09;;;-1.01;nan
8501;BME280;4288;48.484;10.024;2023-01-27T10:23:58;95824.97;;;-1.03;nan
8501;BME280;4288;48.484;10.024;2023-01-27T10:26:34;95829.94;;;-1.02;nan
8501;BME280;4288;48.484;10.024;2023-01-27T10:29:09;95836.31;;;-0.94;nan
8501;BME280;4288;48.484;10.024;2023-01-27T10:31:44;95834.28;;;-0.97;nan
8501;BME280;4288;48.484;10.024;2023-01-27T10:34:25;95831.97;;;-0.99;nan
8501;BME280;4288;48.484;10.024;2023-01-27T10:37:08;95836.72;;;-1.01;nan
8501;BME280;4288;48.484;10.024;2023-01-27T10:39:46;95828.59;;;-1.13;nan
8501;BME280;4288;48.484;10.024;2023-01-27T10:42:24;95827.91;;;-1.05;nan
8501;BME280;4288;48.484;10.024;2023-01-27T10:45:16;95833.97;;;-1.18;nan
8501;BME280;4288;48.484;10.024;2023-01-27T10:48:03;95833.69;;;-1.16;nan
8501;BME280;4288;48.484;10.024;2023-01-27T10:50:35;95827.38;;;-1.15;nan
8501;BME280;4288;48.484;10.024;2023-01-27T10:53:10;95824.44;;;-1.14;nan
8501;BME280;4288;48.484;10.024;2023-01-27T10:55:44;95825.22;;;-1.13;nan
8501;BME280;4288;48.484;10.024;2023-01-27T10:58:17;95829.03;;;-0.97;nan
8501;BME280;4288;48.484;10.024;2023-01-27T11:00:50;95832.09;;;-1.04;nan
8501;BME280;4288;48.484;10.024;2023-01-27T11:03:24;95830.53;;;-1.05;nan
8501;BME280;4288;48.484;10.024;2023-01-27T11:05:55;95825.75;;;-1.03;nan
8501;BME280;4288;48.484;10.024;2023-01-27T11:08:29;95826.84;;;-1.04;nan
8501;BME280;4288;48.484;10.024;2023-01-27T11:11:01;95830.91;;;-0.98;nan
8501;BME280;4288;48.484;10.024;2023-01-27T11:13:47;95828.06;;;-1.01;nan
8501;BME280;4288;48.484;10.024;2023-01-27T11:16:18;95822.34;;;-1.03;nan
8501;BME280;4288;48.484;10.024;2023-01-27T11:18:54;95815.81;;;-0.92;nan
8501;BME280;4288;48.484;10.024;2023-01-27T11:21:26;95809.94;;;-0.89;nan
8501;BME280;4288;48.484;10.024;2023-01-27T11:23:56;95820.03;;;-0.82;nan
8501;BME280;4288;48.484;10.024;2023-01-27T11:26:31;95816.69;;;-0.74;nan
8501;BME280;4288;48.484;10.024;2023-01-27T11:29:20;95815.59;;;-0.73;nan
8501;BME280;4288;48.484;10.024;2023-01-27T11:31:55;95815.13;;;-0.75;nan
8501;BME280;4288;48.484;10.024;2023-01-27T11:34:30;95810.41;;;-0.65;nan
8501;BME280;4288;48.484;10.024;2023-01-27T11:36:58;95811.69;;;-0.54;nan
8501;BME280;4288;48.484;10.024;2023-01-27T11:39:31;95821.84;;;-0.61;nan
8501;BME280;4288;48.484;10.024;2023-01-27T11:41:59;95819.22;;;-0.61;nan
8501;BME280;4288;48.484;10.024;2023-01-27T11:44:32;95830.59;;;-0.43;nan
8501;BME280;4288;48.484;10.024;2023-01-27T11:47:02;95823.03;;;-0.36;nan
8501;BME280;4288;48.484;10.024;2023-01-27T11:49:36;95816.81;;;-0.49;nan
8501;BME280;4288;48.484;10.024;2023-01-27T11:52:09;95819.91;;;-0.47;nan
8501;BME280;4288;48.484;10.024;2023-01-27T11:54:45;95823.78;;;-0.75;nan
8501;BME280;4288;48.484;10.024;2023-01-27T11:57:19;95825.31;;;-0.74;nan
8501;BME280;4288;48.484;10.024;2023-01-27T11:59:49;95820.34;;;-0.84;nan
8501;BME280;4288;48.484;10.024;2023-01-27T12:02:31;95820.75;;;-0.68;nan
8501;BME280;4288;48.484;10.024;2023-01-27T12:05:07;95823.56;;;-0.56;nan
8501;BME280;4288;48.484;10.024;2023-01-27T12:07:50;95814.94;;;-0.57;nan
8501;BME280;4288;48.484;10.024;2023-01-27T12:10:28;95817.50;;;-0.65;nan
8501;BME280;4288;48.484;10.024;2023-01-27T12:12:58;95818.31;;;-0.56;nan
8501;BME280;4288;48.484;10.024;2023-01-27T12:15:28;95818.44;;;-0.31;nan
8501;BME280;4288;48.484;10.024;2023-01-27T12:18:00;95803.25;;;-0.42;nan
8501;BME280;4288;48.484;10.024;2023-01-27T12:20:39;95807.38;;;-0.50;nan
8501;BME280;4288;48.484;10.024;2023-01-27T12:23:19;95795.06;;;-0.41;nan
8501;BME280;4288;48.484;10.024;2023-01-27T12:25:52;95796.41;;;-0.52;nan
8501;BME280;4288;48.484;10.024;2023-01-27T12:28:26;95796.41;;;-0.52;nan
8501;BME280;4288;48.484;10.024;2023-01-27T12:31:01;95796.09;;;-0.50;nan
8501;BME280;4288;48.484;10.024;2023-01-27T12:33:31;95790.22;;;-0.56;nan
8501;BME280;4288;48.484;10.024;2023-01-27T12:36:09;95787.28;;;-0.54;nan
8501;BME280;4288;48.484;10.024;2023-01-27T12:38:36;95778.88;;;-0.34;nan
8501;BME280;4288;48.484;10.024;2023-01-27T12:41:06;95772.44;;;-0.28;nan
8501;BME280;4288;48.484;10.024;2023-01-27T12:43:51;95763.75;;;-0.29;nan
8501;BME280;4288;48.484;10.024;2023-01-27T12:46:22;95773.72;;;-0.09;nan
8501;BME280;4288;48.484;10.024;2023-01-27T12:48:51;95773.69;;;-0.17;nan
8501;BME280;4288;48.484;10.024;2023-01-27T12:51:21;95765.56;;;0.19;nan
8501;BME280;4288;48.484;10.024;2023-01-27T12:53:50;95761.69;;;0.16;nan
8501;BME280;4288;48.484;10.024;2023-01-27T12:56:38;95755.38;;;0.34;nan
8501;BME280;4288;48.484;10.024;2023-01-27T12:59:13;95762.78;;;0.15;nan
8501;BME280;4288;48.484;10.024;2023-01-27T13:01:41;95771.41;;;-0.02;nan
8501;BME280;4288;48.484;10.024;2023-01-27T13:04:16;95765.81;;;-0.17;nan
8501;BME280;4288;48.484;10.024;2023-01-27T13:06:45;95771.41;;;-0.02;nan
8501;BME280;4288;48.484;10.024;2023-01-27T13:09:26;95768.91;;;-0.24;nan
8501;BME280;4288;48.484;10.024;2023-01-27T13:11:59;95759.97;;;-0.14;nan
8501;BME280;4288;48.484;10.024;2023-01-27T13:14:29;95763.81;;;-0.20;nan
8501;BME280;4288;48.484;10.024;2023-01-27T13:16:57;95765.97;;;-0.14;nan
8501;BME280;4288;48.484;10.024;2023-01-27T13:19:34;95765.69;;;-0.12;nan
8501;BME280;4288;48.484;10.024;2023-01-27T13:22:04;95770.00;;;-0.16;nan
8501;BME280;4288;48.484;10.024;2023-01-27T13:24:35;95761.75;;;-0.32;nan
8501;BME280;4288;48.484;10.024;2023-01-27T13:27:11;95769.47;;;-0.35;nan
8501;BME280;4288;48.484;10.024;2023-01-27T13:29:43;95764.69;;;-0.33;nan
8501;BME280;4288;48.484;10.024;2023-01-27T13:32:18;95765.13;;;-0.31;nan
8501;BME280;4288;48.484;10.024;2023-01-27T13:34:53;95775.34;;;-0.30;nan
8501;BME280;4288;48.484;10.024;2023-01-27T13:37:32;95772.84;;;-0.35;nan
8501;BME280;4288;48.484;10.024;2023-01-27T13:40:05;95766.38;;;-0.29;nan
8501;BME280;4288;48.484;10.024;2023-01-27T13:42:43;95772.94;;;-0.18;nan
8501;BME280;4288;48.484;10.024;2023-01-27T13:45:17;95781.28;;;-0.07;nan
8501;BME280;4288;48.484;10.024;2023-01-27T13:47:50;95782.97;;;-0.11;nan
8501;BME280;4288;48.484;10.024;2023-01-27T13:50:27;95783.13;;;-0.16;nan
8501;BME280;4288;48.484;10.024;2023-01-27T13:52:57;95784.81;;;-0.12;nan
8501;BME280;4288;48.484;10.024;2023-01-27T13:55:46;95791.16;;;-0.13;nan
8501;BME280;4288;48.484;10.024;2023-01-27T13:58:24;95794.50;;;-0.29;nan
8501;BME280;4288;48.484;10.024;2023-01-27T14:01:04;95789.22;;;-0.38;nan